Time;durP1;ratioP1;P1;durP2;ratioP2;P2;SDS_P1;SDS_P2;PMS_P1;PMS_P2;Temp;Humidity;BMP_temperature;BMP_pressure;BME280_temperature;BME280_humidity;BME280_pressure;Samples;Min_cycle;Max_cycle;Signal;HPM_P1;HPM_P2
2020/12/16 00:02:23;;;;;;;49.97;27.60;;;12.10;79.30;;;;;;5024648;28;20088;-72
2020/12/16 00:04:50;;;;;;;65.10;27.17;;;12.10;79.50;;;;;;5021378;28;20036;-72
2020/12/16 00:07:16;;;;;;;47.38;26.27;;;12.10;79.50;;;;;;5019278;28;20470;-71
2020/12/16 00:09:42;;;;;;;69.32;28.45;;;12.10;79.50;;;;;;5020170;28;20204;-72
2020/12/16 00:12:08;;;;;;;47.13;23.67;;;12.00;79.50;;;;;;5028729;28;20483;-72
2020/12/16 00:14:34;;;;;;;46.08;24.05;;;12.00;79.70;;;;;;5011355;28;20026;-72
2020/12/16 00:16:59;;;;;;;46.47;25.02;;;12.00;79.70;;;;;;5027556;28;20464;-72
2020/12/16 00:19:25;;;;;;;43.90;25.42;;;12.00;79.80;;;;;;5030829;28;20034;-71
2020/12/16 00:21:51;;;;;;;64.78;24.60;;;11.90;79.70;;;;;;5006398;28;20121;-72
2020/12/16 00:24:17;;;;;;;71.38;26.63;;;11.90;79.80;;;;;;4994987;28;20026;-72
2020/12/16 00:26:43;;;;;;;84.95;28.52;;;11.90;80.00;;;;;;5013060;28;20494;-72
2020/12/16 00:29:12;;;;;;;55.90;24.52;;;11.80;80.10;;;;;;5028778;28;20155;-72
2020/12/16 00:31:38;;;;;;;85.20;29.58;;;11.80;80.20;;;;;;5030016;28;20033;-71
2020/12/16 00:34:06;;;;;;;58.42;27.92;;;11.80;80.30;;;;;;5034535;28;20092;-72
2020/12/16 00:36:38;;;;;;;53.58;26.58;;;11.80;80.20;;;;;;5031202;28;20132;-72
2020/12/16 00:39:06;;;;;;;49.60;25.40;;;11.80;80.10;;;;;;5025811;28;20038;-72
2020/12/16 00:41:33;;;;;;;39.50;23.20;;;11.90;80.10;;;;;;5029484;28;20040;-72
2020/12/16 00:44:03;;;;;;;42.55;21.55;;;11.90;80.00;;;;;;5030019;28;20045;-72
2020/12/16 00:46:29;;;;;;;44.38;24.42;;;12.00;79.70;;;;;;5021003;28;20132;-72
2020/12/16 00:48:55;;;;;;;64.85;23.90;;;12.10;79.60;;;;;;5023087;28;20129;-72
2020/12/16 00:51:20;;;;;;;45.72;25.45;;;12.10;79.40;;;;;;5012488;28;20037;-73
2020/12/16 00:53:46;;;;;;;42.28;24.80;;;12.20;79.30;;;;;;5025921;28;20041;-72
2020/12/16 00:56:12;;;;;;;48.72;23.88;;;12.20;79.10;;;;;;5029535;28;20117;-72
2020/12/16 00:58:37;;;;;;;85.90;27.55;;;12.20;78.90;;;;;;5022573;28;20036;-73
2020/12/16 01:01:04;;;;;;;48.15;25.58;;;12.10;79.00;;;;;;5023891;28;20045;-73
2020/12/16 01:03:30;;;;;;;63.58;27.02;;;12.00;79.20;;;;;;5027161;28;20041;-72
2020/12/16 01:05:56;;;;;;;99.13;30.42;;;12.00;79.50;;;;;;4996012;28;20029;-73
2020/12/16 01:08:22;;;;;;;61.22;27.58;;;11.80;79.80;;;;;;5021089;28;20478;-73
2020/12/16 01:10:48;;;;;;;62.10;28.48;;;11.80;80.20;;;;;;5026692;28;20048;-73
2020/12/16 01:13:13;;;;;;;83.15;28.55;;;11.70;80.30;;;;;;5015549;28;20514;-72
2020/12/16 01:15:39;;;;;;;66.57;26.65;;;11.70;80.40;;;;;;5013433;28;20092;-73
2020/12/16 01:18:05;;;;;;;70.18;30.05;;;11.70;80.50;;;;;;5021304;28;20352;-73
2020/12/16 01:20:30;;;;;;;66.38;30.52;;;11.80;80.40;;;;;;5011983;28;20080;-72
2020/12/16 01:22:56;;;;;;;83.32;25.35;;;11.70;80.30;;;;;;5013084;28;20037;-73
2020/12/16 01:25:22;;;;;;;49.13;23.98;;;11.70;80.40;;;;;;5030983;28;20030;-73
2020/12/16 01:27:54;;;;;;;82.32;27.90;;;11.70;80.30;;;;;;5023371;28;20033;-72
2020/12/16 01:30:19;;;;;;;48.33;25.23;;;11.70;80.30;;;;;;5022404;28;20025;-72
2020/12/16 01:32:45;;;;;;;40.92;23.00;;;11.70;80.20;;;;;;5013262;28;20045;-72
2020/12/16 01:35:12;;;;;;;48.53;24.75;;;11.70;80.20;;;;;;5021159;28;20081;-72
2020/12/16 01:37:38;;;;;;;40.45;25.70;;;11.70;80.10;;;;;;5030826;28;20068;-72
2020/12/16 01:40:09;;;;;;;38.67;21.08;;;11.80;80.10;;;;;;5030406;28;20029;-72
2020/12/16 01:42:35;;;;;;;73.97;26.65;;;11.80;80.00;;;;;;5013767;28;20105;-72
2020/12/16 01:45:10;;;;;;;49.20;24.55;;;11.80;80.00;;;;;;5030058;28;20060;-72
2020/12/16 01:47:36;;;;;;;58.97;26.40;;;11.70;80.10;;;;;;5022506;28;20057;-72
2020/12/16 01:50:05;;;;;;;75.45;26.10;;;11.70;80.30;;;;;;5010838;28;20026;-72
2020/12/16 01:52:31;;;;;;;51.70;26.88;;;11.60;80.30;;;;;;5029366;28;20038;-72
2020/12/16 01:54:58;;;;;;;43.63;24.33;;;11.60;80.50;;;;;;5021374;28;20030;-72
2020/12/16 01:57:25;;;;;;;46.92;25.88;;;11.50;80.60;;;;;;5027333;28;20029;-72
2020/12/16 01:59:51;;;;;;;115.20;27.00;;;11.50;80.60;;;;;;5014734;28;20037;-72
2020/12/16 02:02:19;;;;;;;45.25;22.38;;;11.60;80.70;;;;;;5027258;28;20451;-72
2020/12/16 02:04:50;;;;;;;66.43;23.48;;;11.50;80.50;;;;;;5027805;28;20030;-72
2020/12/16 02:07:16;;;;;;;57.97;25.35;;;11.50;80.70;;;;;;5011262;28;20028;-72
2020/12/16 02:09:46;;;;;;;65.22;23.85;;;11.40;80.50;;;;;;5021311;28;20025;-72
2020/12/16 02:12:28;;;;;;;37.55;19.33;;;11.50;80.50;;;;;;5017436;28;20041;-72
2020/12/16 02:14:54;;;;;;;35.22;21.23;;;11.50;80.50;;;;;;5023787;28;20038;-72
2020/12/16 02:17:19;;;;;;;76.80;22.88;;;11.50;80.50;;;;;;5018733;28;20430;-73
2020/12/16 02:20:06;;;;;;;37.55;20.20;;;11.50;80.50;;;;;;5010617;28;20405;-72
2020/12/16 02:22:32;;;;;;;56.72;26.30;;;11.50;80.40;;;;;;5017393;28;20033;-73
2020/12/16 02:25:08;;;;;;;94.90;26.70;;;11.40;80.30;;;;;;5023559;28;20138;-73
2020/12/16 02:27:38;;;;;;;61.80;26.35;;;11.30;80.60;;;;;;5024962;28;20414;-72
2020/12/16 02:30:05;;;;;;;42.78;25.88;;;11.30;81.00;;;;;;5017520;28;20033;-73
2020/12/16 02:32:31;;;;;;;50.15;24.88;;;11.30;81.00;;;;;;5023456;28;20037;-72
2020/12/16 02:34:57;;;;;;;45.47;23.25;;;11.30;81.00;;;;;;5027360;28;20077;-73
2020/12/16 02:37:24;;;;;;;60.88;24.17;;;11.30;80.90;;;;;;5014686;28;20117;-73
2020/12/16 02:39:50;;;;;;;45.05;22.77;;;11.30;81.40;;;;;;5024083;28;20176;-73
2020/12/16 02:42:22;;;;;;;104.45;29.55;;;11.40;80.80;;;;;;5026588;28;20025;-72
2020/12/16 02:44:47;;;;;;;48.95;23.70;;;11.30;80.90;;;;;;5015224;28;20052;-72
2020/12/16 02:47:13;;;;;;;87.47;27.67;;;11.20;80.90;;;;;;5029271;28;20026;-72
2020/12/16 02:49:39;;;;;;;44.75;24.95;;;11.20;81.00;;;;;;5028428;28;20034;-72
2020/12/16 02:52:05;;;;;;;60.20;24.42;;;11.20;81.00;;;;;;5017955;28;20045;-72
2020/12/16 02:54:30;;;;;;;103.60;30.08;;;11.10;81.10;;;;;;5013701;28;20041;-72
2020/12/16 02:56:56;;;;;;;90.70;29.10;;;11.10;81.00;;;;;;5019860;28;20036;-72
2020/12/16 02:59:24;;;;;;;61.22;25.08;;;11.00;81.10;;;;;;5013179;28;20465;-72
2020/12/16 03:01:51;;;;;;;45.70;23.35;;;10.90;81.10;;;;;;5022107;28;20033;-72
2020/12/16 03:04:17;;;;;;;44.08;22.95;;;10.90;81.30;;;;;;5029495;28;20454;-72
2020/12/16 03:06:48;;;;;;;33.20;21.20;;;10.90;81.30;;;;;;5023003;28;20029;-72
2020/12/16 03:09:19;;;;;;;93.95;23.67;;;10.90;81.40;;;;;;5022950;28;20041;-72
2020/12/16 03:11:48;;;;;;;40.90;22.98;;;10.90;81.20;;;;;;5026958;28;20033;-72
2020/12/16 03:14:14;;;;;;;77.43;22.27;;;10.90;81.20;;;;;;5024532;28;20029;-72
2020/12/16 03:16:39;;;;;;;37.10;22.67;;;10.90;81.20;;;;;;5023965;28;20049;-72
2020/12/16 03:19:05;;;;;;;103.75;28.42;;;10.90;81.30;;;;;;5029788;28;20483;-72
2020/12/16 03:21:31;;;;;;;110.35;28.08;;;10.80;81.40;;;;;;5012432;28;20038;-73
2020/12/16 03:23:56;;;;;;;52.28;23.83;;;10.70;81.70;;;;;;5022417;28;20077;-73
2020/12/16 03:26:22;;;;;;;105.95;26.17;;;10.60;81.80;;;;;;5030104;28;20037;-73
2020/12/16 03:28:48;;;;;;;53.90;24.85;;;10.60;82.00;;;;;;5027709;28;20357;-73
2020/12/16 03:31:14;;;;;;;73.03;23.70;;;10.60;82.00;;;;;;5023682;28;20037;-72
2020/12/16 03:33:44;;;;;;;40.28;21.52;;;10.50;81.90;;;;;;5028099;28;20059;-72
2020/12/16 03:36:15;;;;;;;56.22;23.50;;;10.60;81.80;;;;;;5030192;28;20018;-73
2020/12/16 03:38:42;;;;;;;50.92;23.67;;;10.50;81.80;;;;;;5016973;28;20036;-72
2020/12/16 03:41:08;;;;;;;42.17;23.23;;;10.50;81.70;;;;;;5015266;28;20033;-73
2020/12/16 03:43:33;;;;;;;39.25;20.77;;;10.50;81.80;;;;;;5025342;28;20025;-72
2020/12/16 03:45:59;;;;;;;36.55;21.90;;;10.50;81.80;;;;;;5028981;28;20451;-72
2020/12/16 03:48:25;;;;;;;42.00;22.30;;;10.60;81.70;;;;;;5019070;28;20083;-73
2020/12/16 03:50:50;;;;;;;41.22;20.60;;;10.60;81.60;;;;;;5024273;28;20045;-73
2020/12/16 03:53:16;;;;;;;42.38;22.23;;;10.60;81.50;;;;;;5029239;28;20040;-72
2020/12/16 03:55:42;;;;;;;42.10;22.17;;;10.60;81.60;;;;;;5031499;28;20039;-72
2020/12/16 03:58:07;;;;;;;89.63;25.10;;;10.60;81.60;;;;;;5023489;28;20436;-72
2020/12/16 04:00:33;;;;;;;55.50;21.88;;;10.50;81.50;;;;;;5019843;28;20129;-72
2020/12/16 04:02:59;;;;;;;50.30;22.95;;;10.60;81.50;;;;;;5029828;28;20031;-72
2020/12/16 04:05:24;;;;;;;86.28;24.58;;;10.50;81.40;;;;;;5030281;28;20455;-73
2020/12/16 04:07:50;;;;;;;43.30;21.55;;;10.50;81.50;;;;;;5031002;28;20045;-72
2020/12/16 04:10:16;;;;;;;68.47;21.20;;;10.50;81.40;;;;;;5014566;28;20095;-72
2020/12/16 04:12:42;;;;;;;40.20;21.45;;;10.50;81.50;;;;;;5018769;28;20100;-72
2020/12/16 04:15:07;;;;;;;48.28;21.17;;;10.50;81.60;;;;;;5014369;28;20419;-73
2020/12/16 04:17:34;;;;;;;40.20;19.73;;;10.50;81.60;;;;;;5022610;28;20116;-72
2020/12/16 04:20:00;;;;;;;39.03;20.55;;;10.50;81.60;;;;;;5025209;28;20033;-72
2020/12/16 04:22:28;;;;;;;64.22;21.55;;;10.50;81.60;;;;;;5031012;28;20032;-72
2020/12/16 04:24:54;;;;;;;37.40;19.02;;;10.50;81.60;;;;;;5025263;28;20058;-73
2020/12/16 04:27:19;;;;;;;45.72;21.67;;;10.60;81.50;;;;;;4997563;28;20425;-72
2020/12/16 04:29:46;;;;;;;43.15;21.48;;;10.60;81.40;;;;;;5023137;28;20038;-72
2020/12/16 04:32:12;;;;;;;47.97;20.90;;;10.60;81.40;;;;;;5031706;28;20037;-72
2020/12/16 04:34:37;;;;;;;57.92;19.95;;;10.60;81.40;;;;;;5031873;28;20046;-72
2020/12/16 04:37:03;;;;;;;36.00;19.73;;;10.60;81.40;;;;;;5019563;28;20146;-72
2020/12/16 04:39:29;;;;;;;40.67;20.00;;;10.60;81.40;;;;;;5002789;28;20030;-72
2020/12/16 04:41:56;;;;;;;37.90;20.60;;;10.60;81.50;;;;;;5025903;28;20099;-72
2020/12/16 04:44:22;;;;;;;43.00;19.92;;;10.60;81.40;;;;;;5019035;28;20034;-72
2020/12/16 04:46:48;;;;;;;45.92;22.42;;;10.70;81.30;;;;;;5017830;28;20037;-73
2020/12/16 04:49:14;;;;;;;38.75;20.92;;;10.70;81.20;;;;;;5032618;28;20053;-73
2020/12/16 04:51:43;;;;;;;43.50;23.10;;;10.60;81.30;;;;;;5028830;28;20037;-72
2020/12/16 04:54:10;;;;;;;33.05;21.35;;;10.70;81.30;;;;;;5024330;28;20056;-74
2020/12/16 04:56:36;;;;;;;38.45;21.95;;;10.70;81.10;;;;;;5018524;28;20030;-72
2020/12/16 04:59:04;;;;;;;52.63;25.13;;;10.70;81.00;;;;;;5016027;28;20030;-72
2020/12/16 05:01:29;;;;;;;32.58;21.77;;;10.70;81.00;;;;;;5020762;28;20029;-72
2020/12/16 05:03:55;;;;;;;39.88;22.65;;;10.70;81.10;;;;;;5030995;28;20033;-72
2020/12/16 05:06:40;;;;;;;37.85;21.77;;;10.70;80.90;;;;;;5026640;28;20037;-72
2020/12/16 05:09:11;;;;;;;34.35;22.15;;;10.70;80.90;;;;;;5021177;28;20042;-72
2020/12/16 05:11:48;;;;;;;33.92;21.45;;;10.70;80.90;;;;;;5023568;28;20060;-72
2020/12/16 05:14:24;;;;;;;39.20;23.73;;;10.70;81.00;;;;;;5019070;28;20030;-73
2020/12/16 05:17:04;;;;;;;35.95;22.05;;;10.60;80.90;;;;;;5028589;28;20060;-72
2020/12/16 05:19:40;;;;;;;37.92;22.45;;;10.60;80.90;;;;;;5020201;28;20112;-72
2020/12/16 05:22:28;;;;;;;37.33;22.50;;;10.70;80.90;;;;;;5020816;28;20120;-72
2020/12/16 05:24:56;;;;;;;39.58;23.10;;;10.70;80.70;;;;;;5024550;28;20021;-72
2020/12/16 05:27:32;;;;;;;43.72;23.98;;;10.70;80.40;;;;;;5022795;28;20033;-72
2020/12/16 05:30:04;;;;;;;36.40;22.52;;;10.70;80.40;;;;;;5029629;28;20483;-72
2020/12/16 05:32:34;;;;;;;41.83;23.45;;;10.80;80.40;;;;;;5028493;28;20124;-73
2020/12/16 05:35:18;;;;;;;39.60;24.48;;;10.80;80.30;;;;;;5028651;28;20463;-72
2020/12/16 05:37:44;;;;;;;39.28;24.55;;;10.80;80.20;;;;;;5030376;28;20045;-72
2020/12/16 05:40:15;;;;;;;35.17;22.02;;;10.80;80.10;;;;;;5029796;28;20055;-72
2020/12/16 05:42:41;;;;;;;36.80;22.85;;;10.80;80.00;;;;;;5026933;28;20083;-72
2020/12/16 05:45:14;;;;;;;42.15;23.63;;;10.90;79.90;;;;;;5024535;28;20034;-72
2020/12/16 05:47:42;;;;;;;38.35;22.45;;;10.90;79.70;;;;;;5012718;28;20559;-72
2020/12/16 05:50:18;;;;;;;33.15;21.02;;;10.90;79.50;;;;;;5002890;28;20026;-72
2020/12/16 05:52:47;;;;;;;30.42;19.50;;;10.80;79.70;;;;;;5029268;28;20187;-73
2020/12/16 05:55:26;;;;;;;35.30;21.13;;;10.80;79.70;;;;;;5021001;28;20104;-72
2020/12/16 05:58:13;;;;;;;30.17;19.10;;;10.80;79.60;;;;;;5022603;28;20111;-72
2020/12/16 06:00:47;;;;;;;30.63;18.45;;;10.80;79.40;;;;;;5016947;28;20033;-72
2020/12/16 06:03:18;;;;;;;28.80;19.33;;;10.80;79.30;;;;;;5028852;28;20025;-72
2020/12/16 06:05:49;;;;;;;27.30;18.80;;;10.80;79.20;;;;;;5028755;28;20468;-72
2020/12/16 06:08:15;;;;;;;26.25;17.85;;;10.80;79.10;;;;;;5009023;28;20111;-72
2020/12/16 06:10:44;;;;;;;29.17;18.55;;;10.80;79.00;;;;;;5024587;28;20087;-73
2020/12/16 06:13:14;;;;;;;28.02;19.05;;;10.70;79.00;;;;;;5017237;28;20062;-72
2020/12/16 06:16:01;;;;;;;25.45;17.58;;;10.70;79.00;;;;;;5023290;28;20435;-72
2020/12/16 06:18:28;;;;;;;27.77;17.13;;;10.70;78.80;;;;;;5028901;28;20039;-72
2020/12/16 06:20:54;;;;;;;25.80;17.65;;;10.70;78.70;;;;;;5025695;28;20033;-72
2020/12/16 06:23:21;;;;;;;25.50;18.13;;;10.70;78.60;;;;;;5030385;28;20080;-72
2020/12/16 06:25:52;;;;;;;26.10;18.20;;;10.60;78.50;;;;;;5028756;28;20040;-72
2020/12/16 06:28:18;;;;;;;27.70;18.85;;;10.60;78.60;;;;;;5029189;28;20548;-73
2020/12/16 06:30:57;;;;;;;25.13;16.70;;;10.50;78.70;;;;;;5011027;28;20479;-72
2020/12/16 06:33:41;;;;;;;26.63;17.15;;;10.50;78.80;;;;;;5010599;28;20045;-72
2020/12/16 06:36:10;;;;;;;22.50;15.70;;;10.40;78.90;;;;;;5021349;28;20353;-72
2020/12/16 06:38:45;;;;;;;24.13;15.73;;;10.40;79.00;;;;;;5009698;28;20069;-73
2020/12/16 06:41:22;;;;;;;24.00;16.70;;;10.40;79.20;;;;;;5018840;28;20037;-73
2020/12/16 06:43:52;;;;;;;24.30;17.63;;;10.30;79.00;;;;;;5033629;28;20064;-72
2020/12/16 06:46:30;;;;;;;22.23;15.73;;;10.30;79.30;;;;;;5032517;28;20037;-73
2020/12/16 06:49:10;;;;;;;23.25;15.77;;;10.30;79.30;;;;;;5022084;28;20063;-72
2020/12/16 06:51:43;;;;;;;22.45;15.60;;;10.20;79.20;;;;;;5016227;28;20064;-73
2020/12/16 06:54:11;;;;;;;21.88;15.00;;;10.30;79.30;;;;;;5014725;28;20060;-72
2020/12/16 06:56:38;;;;;;;22.85;15.30;;;10.20;79.20;;;;;;5023678;28;20108;-72
2020/12/16 06:59:04;;;;;;;20.90;14.43;;;10.20;79.20;;;;;;5018375;28;20062;-72
2020/12/16 07:01:30;;;;;;;20.67;15.32;;;10.20;79.30;;;;;;5010442;28;20042;-73
2020/12/16 07:03:56;;;;;;;21.10;14.98;;;10.20;79.20;;;;;;5017556;28;20092;-72
2020/12/16 07:06:27;;;;;;;20.83;14.32;;;10.20;79.20;;;;;;5012396;28;20636;-72
2020/12/16 07:09:22;;;;;;;21.98;15.20;;;10.20;79.20;;;;;;5027291;28;20424;-72
2020/12/16 07:11:52;;;;;;;21.35;14.55;;;10.30;79.30;;;;;;5019993;28;20040;-72
2020/12/16 07:14:20;;;;;;;25.45;14.32;;;10.10;79.30;;;;;;5023243;28;20045;-73
2020/12/16 07:16:47;;;;;;;21.60;14.35;;;10.00;79.40;;;;;;5024164;28;20116;-73
2020/12/16 07:19:25;;;;;;;23.98;15.77;;;10.00;79.50;;;;;;5023732;28;20048;-73
2020/12/16 07:21:51;;;;;;;21.63;14.15;;;9.90;79.50;;;;;;5025229;28;20438;-74
2020/12/16 07:24:17;;;;;;;22.52;15.23;;;9.90;79.50;;;;;;5026479;28;20192;-74
2020/12/16 07:26:46;;;;;;;20.15;14.85;;;9.90;79.50;;;;;;5032265;28;20471;-74
2020/12/16 07:29:24;;;;;;;18.90;12.43;;;9.90;79.50;;;;;;5023595;28;20038;-73
2020/12/16 07:32:11;;;;;;;18.67;14.00;;;9.90;79.40;;;;;;5028207;28;20030;-73
2020/12/16 07:34:50;;;;;;;22.27;14.52;;;9.90;79.20;;;;;;5028261;28;20042;-72
2020/12/16 07:37:19;;;;;;;22.17;15.93;;;9.90;79.10;;;;;;5028510;28;20514;-73
2020/12/16 07:39:53;;;;;;;40.03;15.95;;;9.90;79.20;;;;;;5016890;28;20200;-73
2020/12/16 07:42:39;;;;;;;21.15;14.52;;;9.90;79.30;;;;;;5017897;28;20030;-73
2020/12/16 07:45:06;;;;;;;18.90;14.00;;;9.80;79.30;;;;;;5015544;28;20225;-73
2020/12/16 07:47:32;;;;;;;21.65;15.63;;;9.80;79.40;;;;;;5031654;28;20033;-73
2020/12/16 07:49:58;;;;;;;21.13;14.15;;;9.80;79.50;;;;;;5020605;28;20041;-73
2020/12/16 07:52:29;;;;;;;21.05;15.50;;;9.80;79.50;;;;;;5006621;28;20038;-73
2020/12/16 07:54:56;;;;;;;19.77;14.65;;;9.80;79.60;;;;;;5019792;28;20470;-72
2020/12/16 07:57:29;;;;;;;20.80;14.68;;;9.80;79.60;;;;;;5023992;28;20087;-72
2020/12/16 07:59:55;;;;;;;18.50;11.90;;;9.80;79.60;;;;;;4997061;28;20479;-73
2020/12/16 08:02:20;;;;;;;19.10;12.95;;;9.90;79.60;;;;;;5026303;28;20029;-73
2020/12/16 08:05:02;;;;;;;19.10;13.23;;;9.90;79.50;;;;;;5033447;28;20541;-73
2020/12/16 08:07:29;;;;;;;18.98;14.00;;;9.90;79.40;;;;;;5026097;28;20029;-73
2020/12/16 08:10:07;;;;;;;18.80;14.27;;;10.00;79.40;;;;;;5030669;28;20053;-72
2020/12/16 08:12:40;;;;;;;20.10;14.55;;;9.90;79.40;;;;;;5029774;28;20448;-73
2020/12/16 08:15:10;;;;;;;20.90;14.27;;;10.00;79.40;;;;;;5029489;28;20028;-73
2020/12/16 08:17:42;;;;;;;19.58;14.55;;;10.00;79.30;;;;;;5016698;28;20030;-72
2020/12/16 08:20:19;;;;;;;19.38;12.82;;;10.00;79.20;;;;;;5017748;28;20017;-73
2020/12/16 08:22:47;;;;;;;19.08;13.18;;;10.10;79.10;;;;;;5021692;28;20428;-72
2020/12/16 08:25:15;;;;;;;18.55;13.48;;;10.20;78.90;;;;;;5027421;28;20036;-72
2020/12/16 08:27:55;;;;;;;19.98;14.05;;;10.30;78.90;;;;;;5025743;28;20034;-72
2020/12/16 08:30:23;;;;;;;19.77;15.25;;;10.40;78.70;;;;;;5024884;28;20037;-72
2020/12/16 08:33:06;;;;;;;21.58;14.73;;;10.40;78.50;;;;;;5008071;28;20052;-72
2020/12/16 08:36:01;;;;;;;18.85;12.38;;;10.40;78.50;;;;;;5020307;28;20323;-73
2020/12/16 08:38:28;;;;;;;20.10;14.07;;;10.40;78.50;;;;;;5032796;28;20033;-73
2020/12/16 08:40:58;;;;;;;17.50;13.68;;;10.50;78.50;;;;;;5023030;28;20030;-73
2020/12/16 08:43:35;;;;;;;19.23;12.52;;;10.80;78.20;;;;;;5020779;28;20476;-72
2020/12/16 08:46:12;;;;;;;16.77;12.73;;;11.10;77.50;;;;;;5018142;28;20022;-73
2020/12/16 08:48:49;;;;;;;16.95;12.80;;;11.50;77.10;;;;;;5012423;28;20041;-73
2020/12/16 08:51:39;;;;;;;18.80;13.00;;;12.00;76.00;;;;;;5023033;28;20068;-74
2020/12/16 08:54:10;;;;;;;16.77;12.82;;;12.50;75.00;;;;;;5018849;28;20032;-72
2020/12/16 08:56:42;;;;;;;17.95;12.02;;;12.80;74.30;;;;;;5015988;28;20030;-73
2020/12/16 08:59:16;;;;;;;17.15;11.70;;;12.80;72.90;;;;;;5019664;28;20014;-72
2020/12/16 09:01:44;;;;;;;18.67;12.63;;;12.60;72.80;;;;;;5021896;28;20041;-73
2020/12/16 09:04:21;;;;;;;19.15;13.38;;;12.50;72.70;;;;;;5023661;28;20021;-73
2020/12/16 09:07:04;;;;;;;16.85;12.80;;;12.40;73.40;;;;;;5018256;28;20037;-72
2020/12/16 09:09:31;;;;;;;18.02;14.20;;;12.30;73.50;;;;;;5030623;28;20036;-72
2020/12/16 09:11:57;;;;;;;18.65;14.85;;;12.20;73.70;;;;;;5031878;28;20048;-72
2020/12/16 09:14:24;;;;;;;17.58;13.40;;;12.10;73.90;;;;;;5030977;28;20107;-73
2020/12/16 09:16:50;;;;;;;21.08;15.02;;;12.00;73.80;;;;;;5026024;28;20456;-74
2020/12/16 09:19:18;;;;;;;18.15;15.18;;;11.90;74.10;;;;;;5010842;28;20033;-72
2020/12/16 09:21:43;;;;;;;20.92;15.98;;;11.90;74.40;;;;;;5029151;28;20037;-72
2020/12/16 09:24:09;;;;;;;18.25;14.57;;;11.90;74.60;;;;;;5030190;28;20116;-73
2020/12/16 09:26:40;;;;;;;18.95;13.80;;;11.80;74.70;;;;;;5030834;28;20034;-72
2020/12/16 09:29:21;;;;;;;20.45;14.40;;;11.90;74.90;;;;;;5016482;28;20022;-72
2020/12/16 09:31:48;;;;;;;19.58;13.85;;;12.00;74.70;;;;;;5029063;28;20073;-72
2020/12/16 09:34:14;;;;;;;19.90;16.10;;;12.00;74.70;;;;;;5014105;28;20053;-73
2020/12/16 09:36:40;;;;;;;19.45;14.68;;;12.00;74.80;;;;;;5021038;28;20030;-73
2020/12/16 09:39:07;;;;;;;19.70;13.25;;;11.90;74.70;;;;;;5017101;28;20037;-73
2020/12/16 09:41:47;;;;;;;21.73;14.23;;;11.80;74.80;;;;;;5031345;28;20090;-73
2020/12/16 09:44:23;;;;;;;19.92;15.23;;;11.70;75.30;;;;;;5023539;28;20116;-72
2020/12/16 09:46:49;;;;;;;20.35;12.55;;;11.70;75.60;;;;;;5011741;28;20048;-73
2020/12/16 09:49:19;;;;;;;18.15;12.98;;;11.70;75.70;;;;;;5027323;28;20104;-73
2020/12/16 09:51:44;;;;;;;19.25;13.52;;;11.70;75.90;;;;;;5019586;28;20038;-73
2020/12/16 09:54:10;;;;;;;19.35;13.95;;;11.70;75.90;;;;;;5023476;28;20036;-73
2020/12/16 09:56:36;;;;;;;19.65;13.57;;;11.80;75.90;;;;;;5012395;28;20092;-73
2020/12/16 09:59:02;;;;;;;19.80;13.68;;;11.80;75.80;;;;;;5014553;28;20092;-72
2020/12/16 10:01:28;;;;;;;20.13;14.13;;;11.80;76.00;;;;;;5022409;28;20107;-72
2020/12/16 10:03:53;;;;;;;22.75;14.13;;;11.80;76.10;;;;;;5032682;28;20452;-73
2020/12/16 10:06:19;;;;;;;21.77;15.90;;;11.70;76.00;;;;;;5029076;28;20070;-73
2020/12/16 10:08:45;;;;;;;19.23;12.57;;;11.70;76.20;;;;;;5028644;28;20112;-72
2020/12/16 10:11:19;;;;;;;17.75;12.15;;;11.70;76.40;;;;;;5011509;28;20129;-72
2020/12/16 10:13:45;;;;;;;18.20;14.00;;;11.80;76.40;;;;;;5011395;28;20037;-73
2020/12/16 10:16:11;;;;;;;18.75;13.77;;;11.80;76.50;;;;;;5010686;28;20033;-73
2020/12/16 10:18:37;;;;;;;19.65;13.10;;;11.90;76.20;;;;;;5021780;28;20033;-73
2020/12/16 10:21:04;;;;;;;21.83;12.80;;;12.10;76.10;;;;;;4999607;28;20033;-73
2020/12/16 10:23:30;;;;;;;17.55;11.80;;;12.10;76.00;;;;;;5018628;28;20033;-73
2020/12/16 10:25:55;;;;;;;18.00;12.90;;;12.20;75.70;;;;;;5018942;28;20032;-72
2020/12/16 10:28:21;;;;;;;16.30;11.98;;;12.20;75.70;;;;;;5020504;28;20037;-73
2020/12/16 10:30:51;;;;;;;15.90;11.40;;;12.20;75.70;;;;;;5027632;28;20136;-72
2020/12/16 10:33:17;;;;;;;15.00;10.43;;;12.20;75.60;;;;;;5018204;28;20049;-73
2020/12/16 10:35:43;;;;;;;16.70;12.70;;;12.30;75.60;;;;;;5027696;28;20432;-73
2020/12/16 10:38:10;;;;;;;17.40;11.77;;;12.30;75.60;;;;;;5016641;28;20460;-73
2020/12/16 10:40:36;;;;;;;19.27;12.02;;;12.50;75.60;;;;;;5009880;28;20092;-72
2020/12/16 10:43:03;;;;;;;15.07;10.55;;;12.50;75.40;;;;;;5014605;28;20139;-72
2020/12/16 10:45:29;;;;;;;19.02;11.52;;;12.60;75.10;;;;;;5026932;28;20467;-72
2020/12/16 10:47:59;;;;;;;16.05;10.30;;;12.80;75.20;;;;;;5015994;28;20040;-72
2020/12/16 10:50:30;;;;;;;14.90;10.48;;;12.90;74.90;;;;;;5012793;28;20032;-72
2020/12/16 10:52:57;;;;;;;14.43;10.77;;;12.90;74.60;;;;;;5021604;28;20045;-72
2020/12/16 10:55:23;;;;;;;16.23;11.75;;;12.90;74.40;;;;;;5028080;28;20030;-72
2020/12/16 10:57:48;;;;;;;13.30;9.95;;;13.00;74.60;;;;;;5013371;28;20361;-72
2020/12/16 11:00:14;;;;;;;15.98;10.48;;;13.00;74.60;;;;;;5025465;28;20487;-72
2020/12/16 11:02:40;;;;;;;16.63;11.15;;;13.00;74.20;;;;;;5023282;28;20046;-72
2020/12/16 11:05:05;;;;;;;16.65;10.93;;;12.90;74.50;;;;;;5025940;28;20026;-72
2020/12/16 11:07:31;;;;;;;15.75;10.73;;;12.80;74.50;;;;;;5025265;28;20443;-86
2020/12/16 11:09:56;;;;;;;16.27;11.10;;;12.80;74.70;;;;;;5018953;28;20034;-72
2020/12/16 11:12:22;;;;;;;17.67;11.95;;;12.80;74.90;;;;;;5017184;28;20061;-72
2020/12/16 11:14:48;;;;;;;15.77;11.15;;;12.70;75.10;;;;;;5030490;28;20033;-73
2020/12/16 11:17:13;;;;;;;17.33;11.55;;;12.80;75.30;;;;;;5031179;28;20398;-73
2020/12/16 11:19:40;;;;;;;17.75;10.95;;;12.80;75.30;;;;;;5029610;28;20037;-73
2020/12/16 11:22:07;;;;;;;14.95;10.07;;;12.70;75.40;;;;;;5030800;28;20064;-73
2020/12/16 11:24:33;;;;;;;13.38;9.25;;;12.70;74.80;;;;;;5016630;28;20087;-72
2020/12/16 11:26:58;;;;;;;16.65;12.27;;;12.70;75.20;;;;;;5015103;28;20559;-72
2020/12/16 11:29:25;;;;;;;15.52;11.70;;;12.60;75.30;;;;;;5026837;28;20033;-72
2020/12/16 11:31:53;;;;;;;16.48;11.52;;;12.60;75.40;;;;;;5033640;28;20037;-73
2020/12/16 11:34:21;;;;;;;18.15;11.98;;;12.70;75.50;;;;;;5029604;28;20058;-73
2020/12/16 11:36:49;;;;;;;15.40;11.20;;;12.70;75.20;;;;;;5018687;28;20069;-74
2020/12/16 11:39:17;;;;;;;15.77;11.20;;;12.70;75.30;;;;;;5030227;28;20028;-74
2020/12/16 11:41:45;;;;;;;19.23;12.70;;;12.80;75.40;;;;;;5027880;28;20128;-73
2020/12/16 11:44:11;;;;;;;16.83;10.77;;;12.80;75.40;;;;;;5024398;28;20029;-73
2020/12/16 11:46:37;;;;;;;15.43;11.20;;;12.90;75.00;;;;;;5016586;28;20084;-73
2020/12/16 11:49:03;;;;;;;15.23;11.35;;;12.90;75.00;;;;;;5012535;28;20033;-73
2020/12/16 11:51:29;;;;;;;15.48;11.65;;;13.00;74.80;;;;;;5027020;28;20053;-74
2020/12/16 11:53:55;;;;;;;17.55;12.93;;;13.00;74.50;;;;;;5032530;28;20034;-73
2020/12/16 11:56:22;;;;;;;16.70;10.65;;;13.10;74.70;;;;;;5023410;28;20472;-73
2020/12/16 11:58:47;;;;;;;14.95;11.48;;;13.10;74.10;;;;;;5022551;28;20030;-73
2020/12/16 12:01:16;;;;;;;15.35;10.95;;;13.20;74.20;;;;;;5029971;28;20541;-73
2020/12/16 12:03:42;;;;;;;16.95;11.90;;;13.30;74.10;;;;;;5027776;28;20067;-73
2020/12/16 12:06:12;;;;;;;14.90;10.35;;;13.40;74.00;;;;;;5027246;28;20034;-73
2020/12/16 12:08:38;;;;;;;15.55;10.65;;;13.50;73.70;;;;;;5026380;28;20137;-73
2020/12/16 12:11:05;;;;;;;17.75;10.70;;;13.50;73.50;;;;;;5020786;28;20033;-73
2020/12/16 12:13:32;;;;;;;19.33;12.32;;;13.50;73.20;;;;;;5015047;28;20057;-74
2020/12/16 12:15:58;;;;;;;17.48;12.90;;;13.50;72.90;;;;;;5028088;28;20029;-73
2020/12/16 12:18:23;;;;;;;17.20;11.35;;;13.40;72.80;;;;;;5023741;28;20517;-73
2020/12/16 12:20:49;;;;;;;16.05;11.40;;;13.40;73.10;;;;;;5018020;28;20033;-74
2020/12/16 12:23:14;;;;;;;16.75;11.63;;;13.40;73.30;;;;;;5030178;28;20064;-74
2020/12/16 12:25:40;;;;;;;15.98;12.55;;;13.40;73.30;;;;;;5019729;28;20095;-74
2020/12/16 12:28:06;;;;;;;16.65;12.02;;;13.50;73.20;;;;;;5023931;28;20109;-73
2020/12/16 12:30:31;;;;;;;17.52;12.02;;;13.40;73.10;;;;;;5025204;28;20402;-74
2020/12/16 12:32:57;;;;;;;18.08;13.77;;;13.40;73.10;;;;;;5025384;28;20058;-74
2020/12/16 12:35:23;;;;;;;16.77;12.88;;;13.50;73.00;;;;;;5013001;28;20068;-74
2020/12/16 12:37:48;;;;;;;16.90;12.27;;;13.50;73.00;;;;;;5014729;28;20176;-74